sensor_id;sensor_type;location;lat;lon;timestamp;P1;durP1;ratioP1;P2;durP2;ratioP2
19651;SDS011;9974;52.146;14.668;2022-09-30T00:02:25;7.53;;;5.77;;
19651;SDS011;9974;52.146;14.668;2022-09-30T00:04:52;6.27;;;4.57;;
19651;SDS011;9974;52.146;14.668;2022-09-30T00:07:18;8.40;;;5.47;;
19651;SDS011;9974;52.146;14.668;2022-09-30T00:09:44;7.73;;;5.07;;
19651;SDS011;9974;52.146;14.668;2022-09-30T00:12:12;8.73;;;5.63;;
19651;SDS011;9974;52.146;14.668;2022-09-30T00:14:37;9.50;;;6.00;;
19651;SDS011;9974;52.146;14.668;2022-09-30T00:17:03;7.07;;;5.30;;
19651;SDS011;9974;52.146;14.668;2022-09-30T00:19:29;7.53;;;5.47;;
19651;SDS011;9974;52.146;14.668;2022-09-30T00:21:55;7.80;;;5.03;;
19651;SDS011;9974;52.146;14.668;2022-09-30T00:24:21;6.90;;;5.33;;
19651;SDS011;9974;52.146;14.668;2022-09-30T00:26:47;6.97;;;4.90;;
19651;SDS011;9974;52.146;14.668;2022-09-30T00:29:13;6.67;;;4.70;;
19651;SDS011;9974;52.146;14.668;2022-09-30T00:31:39;8.90;;;5.30;;
19651;SDS011;9974;52.146;14.668;2022-09-30T00:34:05;7.27;;;5.00;;
19651;SDS011;9974;52.146;14.668;2022-09-30T00:36:32;7.93;;;4.40;;
19651;SDS011;9974;52.146;14.668;2022-09-30T00:39:06;7.20;;;5.17;;
19651;SDS011;9974;52.146;14.668;2022-09-30T00:41:34;8.80;;;4.97;;
19651;SDS011;9974;52.146;14.668;2022-09-30T00:44:01;7.27;;;4.90;;
19651;SDS011;9974;52.146;14.668;2022-09-30T00:58:10;7.97;;;5.00;;
19651;SDS011;9974;52.146;14.668;2022-09-30T01:00:42;7.60;;;5.40;;
19651;SDS011;9974;52.146;14.668;2022-09-30T01:03:08;9.80;;;4.57;;
19651;SDS011;9974;52.146;14.668;2022-09-30T01:05:34;14.07;;;5.23;;
19651;SDS011;9974;52.146;14.668;2022-09-30T01:08:00;9.37;;;5.03;;
19651;SDS011;9974;52.146;14.668;2022-09-30T01:10:29;25.70;;;5.47;;
19651;SDS011;9974;52.146;14.668;2022-09-30T01:12:55;5.90;;;4.73;;
19651;SDS011;9974;52.146;14.668;2022-09-30T01:15:22;12.90;;;5.83;;
19651;SDS011;9974;52.146;14.668;2022-09-30T01:18:17;11.23;;;5.30;;
19651;SDS011;9974;52.146;14.668;2022-09-30T01:24:05;8.53;;;4.60;;
19651;SDS011;9974;52.146;14.668;2022-09-30T01:27:04;18.07;;;5.93;;
19651;SDS011;9974;52.146;14.668;2022-09-30T01:30:19;17.10;;;5.67;;
19651;SDS011;9974;52.146;14.668;2022-09-30T01:36:45;22.67;;;5.40;;
19651;SDS011;9974;52.146;14.668;2022-09-30T01:39:34;18.53;;;5.37;;
19651;SDS011;9974;52.146;14.668;2022-09-30T01:42:21;36.57;;;6.07;;
19651;SDS011;9974;52.146;14.668;2022-09-30T01:44:58;31.13;;;5.27;;
19651;SDS011;9974;52.146;14.668;2022-09-30T01:50:18;37.27;;;6.90;;
19651;SDS011;9974;52.146;14.668;2022-09-30T01:53:30;63.60;;;8.40;;
19651;SDS011;9974;52.146;14.668;2022-09-30T01:56:23;39.17;;;7.33;;
19651;SDS011;9974;52.146;14.668;2022-09-30T01:59:07;28.60;;;7.10;;
19651;SDS011;9974;52.146;14.668;2022-09-30T02:01:41;22.73;;;6.60;;
19651;SDS011;9974;52.146;14.668;2022-09-30T02:04:26;29.27;;;6.43;;
19651;SDS011;9974;52.146;14.668;2022-09-30T02:07:00;10.87;;;6.23;;
19651;SDS011;9974;52.146;14.668;2022-09-30T02:09:32;11.80;;;5.57;;
19651;SDS011;9974;52.146;14.668;2022-09-30T02:12:07;19.47;;;5.93;;
19651;SDS011;9974;52.146;14.668;2022-09-30T02:14:44;12.40;;;5.57;;
19651;SDS011;9974;52.146;14.668;2022-09-30T02:17:17;11.77;;;6.07;;
19651;SDS011;9974;52.146;14.668;2022-09-30T02:19:56;26.30;;;6.70;;
19651;SDS011;9974;52.146;14.668;2022-09-30T02:22:31;8.93;;;5.90;;
19651;SDS011;9974;52.146;14.668;2022-09-30T02:25:11;13.90;;;6.23;;
19651;SDS011;9974;52.146;14.668;2022-09-30T02:27:45;23.00;;;7.03;;
19651;SDS011;9974;52.146;14.668;2022-09-30T02:30:23;26.30;;;6.50;;
19651;SDS011;9974;52.146;14.668;2022-09-30T02:32:56;13.27;;;6.33;;
19651;SDS011;9974;52.146;14.668;2022-09-30T02:35:29;13.13;;;6.87;;
19651;SDS011;9974;52.146;14.668;2022-09-30T02:38:01;12.40;;;5.63;;
19651;SDS011;9974;52.146;14.668;2022-09-30T02:40:34;14.07;;;5.90;;
19651;SDS011;9974;52.146;14.668;2022-09-30T02:43:14;7.83;;;5.87;;
19651;SDS011;9974;52.146;14.668;2022-09-30T02:46:26;8.97;;;5.43;;
19651;SDS011;9974;52.146;14.668;2022-09-30T02:51:44;8.07;;;5.87;;
19651;SDS011;9974;52.146;14.668;2022-09-30T02:54:50;11.73;;;6.47;;
19651;SDS011;9974;52.146;14.668;2022-09-30T02:57:41;18.33;;;7.43;;
19651;SDS011;9974;52.146;14.668;2022-09-30T03:00:20;34.03;;;8.77;;
19651;SDS011;9974;52.146;14.668;2022-09-30T03:02:48;52.00;;;8.50;;
19651;SDS011;9974;52.146;14.668;2022-09-30T03:05:18;23.00;;;9.27;;
19651;SDS011;9974;52.146;14.668;2022-09-30T03:07:44;30.40;;;10.27;;
19651;SDS011;9974;52.146;14.668;2022-09-30T03:10:13;17.53;;;8.90;;
19651;SDS011;9974;52.146;14.668;2022-09-30T03:12:55;19.80;;;8.50;;
19651;SDS011;9974;52.146;14.668;2022-09-30T03:18:32;25.37;;;8.83;;
19651;SDS011;9974;52.146;14.668;2022-09-30T03:24:00;23.33;;;10.03;;
19651;SDS011;9974;52.146;14.668;2022-09-30T03:26:48;27.67;;;12.53;;
19651;SDS011;9974;52.146;14.668;2022-09-30T03:32:10;29.17;;;9.83;;
19651;SDS011;9974;52.146;14.668;2022-09-30T03:35:16;24.17;;;10.90;;
19651;SDS011;9974;52.146;14.668;2022-09-30T03:38:02;52.87;;;10.80;;
19651;SDS011;9974;52.146;14.668;2022-09-30T03:44:18;36.00;;;9.90;;
19651;SDS011;9974;52.146;14.668;2022-09-30T03:46:50;52.00;;;9.70;;
19651;SDS011;9974;52.146;14.668;2022-09-30T03:49:29;40.83;;;10.97;;
19651;SDS011;9974;52.146;14.668;2022-09-30T03:51:59;37.97;;;9.87;;
19651;SDS011;9974;52.146;14.668;2022-09-30T03:54:30;29.03;;;9.93;;
19651;SDS011;9974;52.146;14.668;2022-09-30T03:56:57;21.73;;;10.13;;
19651;SDS011;9974;52.146;14.668;2022-09-30T03:59:27;13.70;;;9.77;;
19651;SDS011;9974;52.146;14.668;2022-09-30T04:01:53;43.63;;;11.33;;
19651;SDS011;9974;52.146;14.668;2022-09-30T04:04:20;24.47;;;10.70;;
19651;SDS011;9974;52.146;14.668;2022-09-30T04:06:46;18.17;;;9.53;;
19651;SDS011;9974;52.146;14.668;2022-09-30T04:09:12;26.03;;;10.20;;
19651;SDS011;9974;52.146;14.668;2022-09-30T04:11:38;33.67;;;12.13;;
19651;SDS011;9974;52.146;14.668;2022-09-30T04:14:04;35.27;;;11.60;;
19651;SDS011;9974;52.146;14.668;2022-09-30T04:16:30;48.30;;;11.70;;
19651;SDS011;9974;52.146;14.668;2022-09-30T04:18:57;30.63;;;11.07;;
19651;SDS011;9974;52.146;14.668;2022-09-30T04:21:23;86.50;;;13.20;;
19651;SDS011;9974;52.146;14.668;2022-09-30T04:23:50;28.17;;;10.63;;
19651;SDS011;9974;52.146;14.668;2022-09-30T04:26:16;47.93;;;12.20;;
19651;SDS011;9974;52.146;14.668;2022-09-30T04:28:44;50.50;;;12.13;;
19651;SDS011;9974;52.146;14.668;2022-09-30T04:31:10;52.83;;;12.83;;
19651;SDS011;9974;52.146;14.668;2022-09-30T04:33:37;33.43;;;12.27;;
19651;SDS011;9974;52.146;14.668;2022-09-30T04:36:04;33.87;;;12.23;;
19651;SDS011;9974;52.146;14.668;2022-09-30T04:38:30;45.83;;;12.03;;
19651;SDS011;9974;52.146;14.668;2022-09-30T04:41:00;32.27;;;11.80;;
19651;SDS011;9974;52.146;14.668;2022-09-30T04:43:28;39.43;;;10.07;;
19651;SDS011;9974;52.146;14.668;2022-09-30T04:45:54;38.80;;;10.73;;
19651;SDS011;9974;52.146;14.668;2022-09-30T04:48:21;47.27;;;10.77;;
19651;SDS011;9974;52.146;14.668;2022-09-30T04:50:48;26.60;;;11.90;;
19651;SDS011;9974;52.146;14.668;2022-09-30T04:53:14;18.60;;;10.50;;
19651;SDS011;9974;52.146;14.668;2022-09-30T04:55:41;31.60;;;12.07;;
19651;SDS011;9974;52.146;14.668;2022-09-30T04:58:08;18.67;;;12.13;;
19651;SDS011;9974;52.146;14.668;2022-09-30T05:00:34;34.97;;;12.23;;
19651;SDS011;9974;52.146;14.668;2022-09-30T05:03:01;32.90;;;11.30;;
19651;SDS011;9974;52.146;14.668;2022-09-30T05:05:27;39.07;;;11.77;;
19651;SDS011;9974;52.146;14.668;2022-09-30T05:07:58;27.80;;;11.17;;
19651;SDS011;9974;52.146;14.668;2022-09-30T05:10:25;59.67;;;11.20;;
19651;SDS011;9974;52.146;14.668;2022-09-30T05:12:51;56.40;;;10.87;;
19651;SDS011;9974;52.146;14.668;2022-09-30T05:15:18;46.03;;;11.83;;
19651;SDS011;9974;52.146;14.668;2022-09-30T05:17:43;15.37;;;10.27;;
19651;SDS011;9974;52.146;14.668;2022-09-30T05:20:12;23.57;;;10.23;;
19651;SDS011;9974;52.146;14.668;2022-09-30T05:22:38;24.27;;;10.00;;
19651;SDS011;9974;52.146;14.668;2022-09-30T05:25:05;24.20;;;10.50;;
19651;SDS011;9974;52.146;14.668;2022-09-30T05:27:31;18.07;;;10.70;;
19651;SDS011;9974;52.146;14.668;2022-09-30T05:29:57;21.97;;;10.20;;
19651;SDS011;9974;52.146;14.668;2022-09-30T05:32:23;26.17;;;10.60;;
19651;SDS011;9974;52.146;14.668;2022-09-30T05:34:49;19.33;;;10.23;;
19651;SDS011;9974;52.146;14.668;2022-09-30T05:37:15;16.47;;;11.00;;
19651;SDS011;9974;52.146;14.668;2022-09-30T05:39:41;14.27;;;10.50;;
19651;SDS011;9974;52.146;14.668;2022-09-30T05:42:07;17.17;;;10.53;;
19651;SDS011;9974;52.146;14.668;2022-09-30T05:44:33;34.30;;;10.73;;
19651;SDS011;9974;52.146;14.668;2022-09-30T05:46:59;31.87;;;10.27;;
19651;SDS011;9974;52.146;14.668;2022-09-30T05:49:25;50.73;;;9.80;;
19651;SDS011;9974;52.146;14.668;2022-09-30T05:51:52;102.20;;;11.60;;
19651;SDS011;9974;52.146;14.668;2022-09-30T05:54:17;73.87;;;11.30;;
19651;SDS011;9974;52.146;14.668;2022-09-30T05:56:43;39.37;;;10.90;;
19651;SDS011;9974;52.146;14.668;2022-09-30T05:59:09;32.17;;;12.27;;
19651;SDS011;9974;52.146;14.668;2022-09-30T06:01:35;50.40;;;10.53;;
19651;SDS011;9974;52.146;14.668;2022-09-30T06:04:01;51.30;;;10.60;;
19651;SDS011;9974;52.146;14.668;2022-09-30T06:06:27;78.60;;;11.00;;
19651;SDS011;9974;52.146;14.668;2022-09-30T06:08:54;51.57;;;10.37;;
19651;SDS011;9974;52.146;14.668;2022-09-30T06:11:20;31.57;;;8.77;;
19651;SDS011;9974;52.146;14.668;2022-09-30T06:13:49;70.13;;;10.40;;
19651;SDS011;9974;52.146;14.668;2022-09-30T06:16:15;30.33;;;11.23;;
19651;SDS011;9974;52.146;14.668;2022-09-30T06:18:42;27.17;;;11.87;;
19651;SDS011;9974;52.146;14.668;2022-09-30T06:21:09;29.37;;;14.03;;
19651;SDS011;9974;52.146;14.668;2022-09-30T06:23:38;16.33;;;10.60;;
19651;SDS011;9974;52.146;14.668;2022-09-30T06:26:05;16.73;;;9.53;;
19651;SDS011;9974;52.146;14.668;2022-09-30T06:28:32;17.10;;;9.53;;
19651;SDS011;9974;52.146;14.668;2022-09-30T06:30:59;21.17;;;10.27;;
19651;SDS011;9974;52.146;14.668;2022-09-30T06:33:26;21.03;;;11.37;;
19651;SDS011;9974;52.146;14.668;2022-09-30T06:35:53;19.03;;;11.53;;
19651;SDS011;9974;52.146;14.668;2022-09-30T06:38:19;31.30;;;11.83;;
19651;SDS011;9974;52.146;14.668;2022-09-30T06:40:47;23.27;;;12.23;;
19651;SDS011;9974;52.146;14.668;2022-09-30T06:43:14;19.90;;;12.07;;
19651;SDS011;9974;52.146;14.668;2022-09-30T06:45:40;20.80;;;13.60;;
19651;SDS011;9974;52.146;14.668;2022-09-30T06:48:06;23.63;;;13.00;;
19651;SDS011;9974;52.146;14.668;2022-09-30T06:50:33;24.20;;;14.23;;
19651;SDS011;9974;52.146;14.668;2022-09-30T06:53:00;26.73;;;13.43;;
19651;SDS011;9974;52.146;14.668;2022-09-30T06:55:30;22.03;;;13.10;;
19651;SDS011;9974;52.146;14.668;2022-09-30T06:57:56;22.40;;;12.13;;
19651;SDS011;9974;52.146;14.668;2022-09-30T07:00:23;17.37;;;12.40;;
19651;SDS011;9974;52.146;14.668;2022-09-30T07:02:50;19.53;;;12.90;;
19651;SDS011;9974;52.146;14.668;2022-09-30T07:05:18;20.47;;;13.43;;
19651;SDS011;9974;52.146;14.668;2022-09-30T07:07:44;21.67;;;13.40;;
19651;SDS011;9974;52.146;14.668;2022-09-30T07:10:10;20.90;;;14.73;;
19651;SDS011;9974;52.146;14.668;2022-09-30T07:12:36;19.27;;;13.83;;
19651;SDS011;9974;52.146;14.668;2022-09-30T07:15:02;22.43;;;14.70;;
19651;SDS011;9974;52.146;14.668;2022-09-30T07:17:28;24.60;;;12.13;;
19651;SDS011;9974;52.146;14.668;2022-09-30T07:19:54;23.07;;;10.77;;
19651;SDS011;9974;52.146;14.668;2022-09-30T07:22:20;25.10;;;11.57;;
19651;SDS011;9974;52.146;14.668;2022-09-30T07:24:52;16.80;;;9.80;;
19651;SDS011;9974;52.146;14.668;2022-09-30T07:27:19;11.70;;;8.97;;
19651;SDS011;9974;52.146;14.668;2022-09-30T07:29:45;15.77;;;10.80;;
19651;SDS011;9974;52.146;14.668;2022-09-30T07:32:12;19.07;;;12.10;;
19651;SDS011;9974;52.146;14.668;2022-09-30T07:34:39;20.83;;;11.90;;
19651;SDS011;9974;52.146;14.668;2022-09-30T07:37:07;18.73;;;11.50;;
19651;SDS011;9974;52.146;14.668;2022-09-30T07:39:34;18.57;;;11.90;;
19651;SDS011;9974;52.146;14.668;2022-09-30T07:42:00;24.33;;;11.30;;
19651;SDS011;9974;52.146;14.668;2022-09-30T07:44:28;20.07;;;12.73;;
19651;SDS011;9974;52.146;14.668;2022-09-30T07:46:54;18.27;;;13.57;;
19651;SDS011;9974;52.146;14.668;2022-09-30T07:49:20;25.97;;;14.33;;
19651;SDS011;9974;52.146;14.668;2022-09-30T07:51:50;18.70;;;12.77;;
19651;SDS011;9974;52.146;14.668;2022-09-30T07:54:20;18.73;;;15.40;;
19651;SDS011;9974;52.146;14.668;2022-09-30T07:56:48;19.37;;;15.60;;
19651;SDS011;9974;52.146;14.668;2022-09-30T07:59:16;19.90;;;14.87;;
19651;SDS011;9974;52.146;14.668;2022-09-30T08:01:42;18.53;;;14.93;;
19651;SDS011;9974;52.146;14.668;2022-09-30T08:04:09;20.80;;;13.97;;
19651;SDS011;9974;52.146;14.668;2022-09-30T08:06:41;18.63;;;13.83;;
19651;SDS011;9974;52.146;14.668;2022-09-30T08:09:11;21.20;;;13.93;;
19651;SDS011;9974;52.146;14.668;2022-09-30T08:11:39;19.70;;;14.27;;
19651;SDS011;9974;52.146;14.668;2022-09-30T08:14:07;22.10;;;15.17;;
19651;SDS011;9974;52.146;14.668;2022-09-30T08:16:58;20.30;;;13.70;;
19651;SDS011;9974;52.146;14.668;2022-09-30T08:19:24;19.43;;;15.30;;
19651;SDS011;9974;52.146;14.668;2022-09-30T08:21:52;17.73;;;13.65;;
19651;SDS011;9974;52.146;14.668;2022-09-30T08:24:18;18.37;;;14.03;;
19651;SDS011;9974;52.146;14.668;2022-09-30T08:26:45;20.48;;;15.63;;
19651;SDS011;9974;52.146;14.668;2022-09-30T08:29:11;18.10;;;14.23;;
19651;SDS011;9974;52.146;14.668;2022-09-30T08:31:38;20.65;;;16.02;;
19651;SDS011;9974;52.146;14.668;2022-09-30T08:34:04;19.37;;;14.77;;
19651;SDS011;9974;52.146;14.668;2022-09-30T08:36:30;20.95;;;14.13;;
19651;SDS011;9974;52.146;14.668;2022-09-30T08:38:56;19.60;;;14.20;;
19651;SDS011;9974;52.146;14.668;2022-09-30T08:41:34;19.33;;;14.35;;
19651;SDS011;9974;52.146;14.668;2022-09-30T08:44:11;17.60;;;13.70;;
19651;SDS011;9974;52.146;14.668;2022-09-30T08:50:11;16.08;;;11.93;;
19651;SDS011;9974;52.146;14.668;2022-09-30T08:52:45;16.75;;;12.43;;
19651;SDS011;9974;52.146;14.668;2022-09-30T08:55:22;17.52;;;12.40;;
19651;SDS011;9974;52.146;14.668;2022-09-30T08:57:51;15.43;;;12.25;;
19651;SDS011;9974;52.146;14.668;2022-09-30T09:00:19;17.67;;;13.45;;
19651;SDS011;9974;52.146;14.668;2022-09-30T09:02:50;16.80;;;12.60;;
19651;SDS011;9974;52.146;14.668;2022-09-30T09:06:07;16.15;;;12.73;;
19651;SDS011;9974;52.146;14.668;2022-09-30T09:08:37;16.02;;;12.75;;
19651;SDS011;9974;52.146;14.668;2022-09-30T09:11:16;16.30;;;12.70;;
19651;SDS011;9974;52.146;14.668;2022-09-30T09:20:12;18.27;;;12.82;;
19651;SDS011;9974;52.146;14.668;2022-09-30T09:22:44;15.48;;;12.75;;
19651;SDS011;9974;52.146;14.668;2022-09-30T09:25:14;16.38;;;12.30;;
19651;SDS011;9974;52.146;14.668;2022-09-30T09:27:45;16.23;;;12.18;;
19651;SDS011;9974;52.146;14.668;2022-09-30T09:30:21;17.50;;;13.23;;
19651;SDS011;9974;52.146;14.668;2022-09-30T09:32:51;17.88;;;11.98;;
19651;SDS011;9974;52.146;14.668;2022-09-30T09:38:23;14.23;;;11.95;;
19651;SDS011;9974;52.146;14.668;2022-09-30T09:44:25;13.48;;;10.40;;
19651;SDS011;9974;52.146;14.668;2022-09-30T09:47:04;14.55;;;11.77;;
19651;SDS011;9974;52.146;14.668;2022-09-30T09:49:39;17.17;;;13.02;;
19651;SDS011;9974;52.146;14.668;2022-09-30T09:55:22;14.98;;;11.00;;
19651;SDS011;9974;52.146;14.668;2022-09-30T09:58:03;10.55;;;8.30;;
19651;SDS011;9974;52.146;14.668;2022-09-30T10:00:37;13.55;;;10.43;;
19651;SDS011;9974;52.146;14.668;2022-09-30T10:03:14;13.98;;;10.27;;
19651;SDS011;9974;52.146;14.668;2022-09-30T10:05:58;12.32;;;9.82;;
19651;SDS011;9974;52.146;14.668;2022-09-30T10:08:27;16.02;;;9.90;;
19651;SDS011;9974;52.146;14.668;2022-09-30T10:10:58;14.10;;;9.75;;
19651;SDS011;9974;52.146;14.668;2022-09-30T10:16:05;10.90;;;8.27;;
19651;SDS011;9974;52.146;14.668;2022-09-30T10:18:34;13.77;;;9.30;;
19651;SDS011;9974;52.146;14.668;2022-09-30T10:21:02;12.40;;;9.75;;
19651;SDS011;9974;52.146;14.668;2022-09-30T10:23:38;13.80;;;9.07;;
19651;SDS011;9974;52.146;14.668;2022-09-30T10:28:47;10.77;;;8.95;;
19651;SDS011;9974;52.146;14.668;2022-09-30T10:37:01;9.05;;;6.75;;
19651;SDS011;9974;52.146;14.668;2022-09-30T10:39:36;9.15;;;6.07;;
19651;SDS011;9974;52.146;14.668;2022-09-30T10:42:19;8.32;;;6.03;;
19651;SDS011;9974;52.146;14.668;2022-09-30T10:44:54;9.45;;;5.50;;
19651;SDS011;9974;52.146;14.668;2022-09-30T10:47:23;7.40;;;4.28;;
19651;SDS011;9974;52.146;14.668;2022-09-30T10:52:33;10.48;;;5.22;;
19651;SDS011;9974;52.146;14.668;2022-09-30T10:55:06;7.38;;;4.90;;
19651;SDS011;9974;52.146;14.668;2022-09-30T10:57:52;5.72;;;4.20;;
19651;SDS011;9974;52.146;14.668;2022-09-30T11:00:23;6.28;;;3.72;;
19651;SDS011;9974;52.146;14.668;2022-09-30T11:02:57;6.82;;;3.95;;
19651;SDS011;9974;52.146;14.668;2022-09-30T11:05:29;4.88;;;3.17;;
19651;SDS011;9974;52.146;14.668;2022-09-30T11:08:01;5.68;;;3.45;;
19651;SDS011;9974;52.146;14.668;2022-09-30T11:10:51;5.38;;;4.28;;
19651;SDS011;9974;52.146;14.668;2022-09-30T11:13:45;5.40;;;3.95;;
19651;SDS011;9974;52.146;14.668;2022-09-30T11:16:50;4.28;;;3.30;;
19651;SDS011;9974;52.146;14.668;2022-09-30T11:19:36;7.45;;;5.35;;
19651;SDS011;9974;52.146;14.668;2022-09-30T11:22:36;9.15;;;4.90;;
19651;SDS011;9974;52.146;14.668;2022-09-30T11:25:17;8.07;;;5.80;;
19651;SDS011;9974;52.146;14.668;2022-09-30T11:31:01;7.68;;;6.05;;
19651;SDS011;9974;52.146;14.668;2022-09-30T11:33:50;8.63;;;5.88;;
19651;SDS011;9974;52.146;14.668;2022-09-30T11:36:56;7.90;;;5.90;;
19651;SDS011;9974;52.146;14.668;2022-09-30T11:42:59;8.50;;;6.40;;
19651;SDS011;9974;52.146;14.668;2022-09-30T11:48:54;9.02;;;7.15;;
19651;SDS011;9974;52.146;14.668;2022-09-30T11:51:50;9.02;;;6.18;;
19651;SDS011;9974;52.146;14.668;2022-09-30T11:54:40;9.80;;;6.38;;
19651;SDS011;9974;52.146;14.668;2022-09-30T11:57:36;11.10;;;7.95;;
19651;SDS011;9974;52.146;14.668;2022-09-30T12:00:20;6.60;;;4.90;;
19651;SDS011;9974;52.146;14.668;2022-09-30T12:11:06;9.32;;;6.45;;
19651;SDS011;9974;52.146;14.668;2022-09-30T12:13:42;7.72;;;5.82;;
19651;SDS011;9974;52.146;14.668;2022-09-30T12:16:16;8.27;;;5.78;;
19651;SDS011;9974;52.146;14.668;2022-09-30T12:18:48;8.05;;;6.38;;
19651;SDS011;9974;52.146;14.668;2022-09-30T12:24:15;10.15;;;5.55;;
19651;SDS011;9974;52.146;14.668;2022-09-30T12:26:57;6.68;;;4.38;;
19651;SDS011;9974;52.146;14.668;2022-09-30T12:29:27;10.35;;;4.85;;
19651;SDS011;9974;52.146;14.668;2022-09-30T12:32:32;5.72;;;3.83;;
19651;SDS011;9974;52.146;14.668;2022-09-30T12:41:18;7.03;;;4.00;;
19651;SDS011;9974;52.146;14.668;2022-09-30T12:44:36;4.28;;;2.70;;
19651;SDS011;9974;52.146;14.668;2022-09-30T12:47:44;5.00;;;3.38;;
19651;SDS011;9974;52.146;14.668;2022-09-30T12:50:18;6.65;;;3.67;;
19651;SDS011;9974;52.146;14.668;2022-09-30T12:52:48;5.90;;;3.83;;
19651;SDS011;9974;52.146;14.668;2022-09-30T12:55:20;5.72;;;3.40;;
19651;SDS011;9974;52.146;14.668;2022-09-30T12:57:53;9.02;;;3.85;;
19651;SDS011;9974;52.146;14.668;2022-09-30T13:00:24;4.15;;;2.85;;
19651;SDS011;9974;52.146;14.668;2022-09-30T13:02:56;4.28;;;2.88;;
19651;SDS011;9974;52.146;14.668;2022-09-30T13:10:45;3.83;;;2.72;;
19651;SDS011;9974;52.146;14.668;2022-09-30T13:15:48;4.57;;;2.65;;
19651;SDS011;9974;52.146;14.668;2022-09-30T13:20:49;7.25;;;2.90;;
19651;SDS011;9974;52.146;14.668;2022-09-30T13:26:04;4.25;;;2.60;;
19651;SDS011;9974;52.146;14.668;2022-09-30T13:32:11;7.82;;;3.83;;
19651;SDS011;9974;52.146;14.668;2022-09-30T13:34:24;4.97;;;3.22;;
19651;SDS011;9974;52.146;14.668;2022-09-30T13:37:04;4.47;;;2.60;;
19651;SDS011;9974;52.146;14.668;2022-09-30T13:39:55;4.68;;;2.83;;
19651;SDS011;9974;52.146;14.668;2022-09-30T13:42:24;3.72;;;2.40;;
19651;SDS011;9974;52.146;14.668;2022-09-30T13:48:03;4.28;;;2.78;;
19651;SDS011;9974;52.146;14.668;2022-09-30T13:50:36;4.97;;;2.88;;
19651;SDS011;9974;52.146;14.668;2022-09-30T13:53:51;4.22;;;2.75;;
19651;SDS011;9974;52.146;14.668;2022-09-30T13:56:19;2.92;;;2.00;;
19651;SDS011;9974;52.146;14.668;2022-09-30T14:08:06;4.13;;;2.10;;
19651;SDS011;9974;52.146;14.668;2022-09-30T14:11:09;3.63;;;2.72;;
19651;SDS011;9974;52.146;14.668;2022-09-30T14:23:02;5.00;;;2.28;;
19651;SDS011;9974;52.146;14.668;2022-09-30T14:25:31;3.47;;;1.90;;
19651;SDS011;9974;52.146;14.668;2022-09-30T14:28:04;5.90;;;2.17;;
19651;SDS011;9974;52.146;14.668;2022-09-30T14:30:40;3.67;;;2.10;;
19651;SDS011;9974;52.146;14.668;2022-09-30T14:33:27;5.93;;;2.30;;
19651;SDS011;9974;52.146;14.668;2022-09-30T14:35:55;3.55;;;2.10;;
19651;SDS011;9974;52.146;14.668;2022-09-30T14:38:26;6.03;;;2.22;;
19651;SDS011;9974;52.146;14.668;2022-09-30T14:40:58;5.07;;;2.80;;
19651;SDS011;9974;52.146;14.668;2022-09-30T14:43:35;4.10;;;2.45;;
19651;SDS011;9974;52.146;14.668;2022-09-30T14:46:06;4.80;;;2.20;;
19651;SDS011;9974;52.146;14.668;2022-09-30T14:48:40;4.80;;;2.30;;
19651;SDS011;9974;52.146;14.668;2022-09-30T14:51:10;6.45;;;2.70;;
19651;SDS011;9974;52.146;14.668;2022-09-30T14:53:40;4.07;;;2.22;;
19651;SDS011;9974;52.146;14.668;2022-09-30T14:56:21;6.22;;;2.28;;
19651;SDS011;9974;52.146;14.668;2022-09-30T14:58:54;5.47;;;2.13;;
19651;SDS011;9974;52.146;14.668;2022-09-30T15:01:22;3.22;;;2.08;;
19651;SDS011;9974;52.146;14.668;2022-09-30T15:03:57;5.40;;;3.05;;
19651;SDS011;9974;52.146;14.668;2022-09-30T15:06:30;5.93;;;3.20;;
19651;SDS011;9974;52.146;14.668;2022-09-30T15:09:03;4.07;;;2.30;;
19651;SDS011;9974;52.146;14.668;2022-09-30T15:11:32;4.45;;;2.30;;
19651;SDS011;9974;52.146;14.668;2022-09-30T15:14:04;5.15;;;2.45;;
19651;SDS011;9974;52.146;14.668;2022-09-30T15:16:42;3.60;;;2.03;;
19651;SDS011;9974;52.146;14.668;2022-09-30T15:19:23;4.00;;;2.47;;
19651;SDS011;9974;52.146;14.668;2022-09-30T15:21:58;3.42;;;2.08;;
19651;SDS011;9974;52.146;14.668;2022-09-30T15:24:28;4.32;;;2.33;;
19651;SDS011;9974;52.146;14.668;2022-09-30T15:26:56;4.25;;;2.42;;
19651;SDS011;9974;52.146;14.668;2022-09-30T15:29:24;3.92;;;2.40;;
19651;SDS011;9974;52.146;14.668;2022-09-30T15:34:28;4.35;;;2.55;;
19651;SDS011;9974;52.146;14.668;2022-09-30T15:36:55;4.50;;;2.50;;
19651;SDS011;9974;52.146;14.668;2022-09-30T15:39:45;3.97;;;2.33;;
19651;SDS011;9974;52.146;14.668;2022-09-30T15:45:26;9.65;;;7.88;;
19651;SDS011;9974;52.146;14.668;2022-09-30T15:47:58;9.65;;;8.18;;
19651;SDS011;9974;52.146;14.668;2022-09-30T15:50:36;6.30;;;4.53;;
19651;SDS011;9974;52.146;14.668;2022-09-30T15:53:05;11.55;;;7.90;;
19651;SDS011;9974;52.146;14.668;2022-09-30T15:56:16;5.95;;;4.40;;
19651;SDS011;9974;52.146;14.668;2022-09-30T15:59:00;5.70;;;3.97;;
19651;SDS011;9974;52.146;14.668;2022-09-30T16:01:36;6.60;;;3.35;;
19651;SDS011;9974;52.146;14.668;2022-09-30T16:06:47;14.32;;;10.00;;
19651;SDS011;9974;52.146;14.668;2022-09-30T16:09:17;30.15;;;18.25;;
19651;SDS011;9974;52.146;14.668;2022-09-30T16:14:41;37.53;;;24.48;;
19651;SDS011;9974;52.146;14.668;2022-09-30T16:17:14;14.88;;;10.98;;
19651;SDS011;9974;52.146;14.668;2022-09-30T16:27:39;16.95;;;11.98;;
19651;SDS011;9974;52.146;14.668;2022-09-30T16:30:05;12.77;;;10.50;;
19651;SDS011;9974;52.146;14.668;2022-09-30T16:32:34;8.30;;;6.13;;
19651;SDS011;9974;52.146;14.668;2022-09-30T16:35:03;11.88;;;10.27;;
19651;SDS011;9974;52.146;14.668;2022-09-30T16:37:30;8.27;;;5.13;;
19651;SDS011;9974;52.146;14.668;2022-09-30T16:39:57;8.45;;;5.65;;
19651;SDS011;9974;52.146;14.668;2022-09-30T16:42:40;8.95;;;6.57;;
19651;SDS011;9974;52.146;14.668;2022-09-30T16:45:05;8.88;;;4.57;;
19651;SDS011;9974;52.146;14.668;2022-09-30T16:47:31;6.55;;;4.88;;
19651;SDS011;9974;52.146;14.668;2022-09-30T16:49:57;8.75;;;4.88;;
19651;SDS011;9974;52.146;14.668;2022-09-30T16:52:23;10.05;;;5.45;;
19651;SDS011;9974;52.146;14.668;2022-09-30T16:54:50;7.00;;;4.90;;
19651;SDS011;9974;52.146;14.668;2022-09-30T16:57:16;6.43;;;4.43;;
19651;SDS011;9974;52.146;14.668;2022-09-30T16:59:42;6.43;;;4.18;;
19651;SDS011;9974;52.146;14.668;2022-09-30T17:02:11;7.47;;;4.32;;
19651;SDS011;9974;52.146;14.668;2022-09-30T17:04:38;5.70;;;4.00;;
19651;SDS011;9974;52.146;14.668;2022-09-30T17:07:04;6.85;;;4.25;;
19651;SDS011;9974;52.146;14.668;2022-09-30T17:09:30;7.88;;;4.40;;
19651;SDS011;9974;52.146;14.668;2022-09-30T17:11:55;9.80;;;4.70;;
19651;SDS011;9974;52.146;14.668;2022-09-30T17:14:22;8.52;;;4.50;;
19651;SDS011;9974;52.146;14.668;2022-09-30T17:16:48;7.43;;;4.53;;
19651;SDS011;9974;52.146;14.668;2022-09-30T17:19:14;5.93;;;4.32;;
19651;SDS011;9974;52.146;14.668;2022-09-30T17:21:40;6.07;;;3.85;;
19651;SDS011;9974;52.146;14.668;2022-09-30T17:24:06;7.70;;;4.72;;
19651;SDS011;9974;52.146;14.668;2022-09-30T17:26:32;6.90;;;3.45;;
19651;SDS011;9974;52.146;14.668;2022-09-30T17:28:58;6.60;;;4.22;;
19651;SDS011;9974;52.146;14.668;2022-09-30T17:31:24;7.90;;;4.57;;
19651;SDS011;9974;52.146;14.668;2022-09-30T17:33:50;8.13;;;4.35;;
19651;SDS011;9974;52.146;14.668;2022-09-30T17:36:16;7.60;;;4.40;;
19651;SDS011;9974;52.146;14.668;2022-09-30T17:38:42;6.13;;;4.38;;
19651;SDS011;9974;52.146;14.668;2022-09-30T17:41:09;8.55;;;5.60;;